Time;durP1;ratioP1;P1;durP2;ratioP2;P2;SDS_P1;SDS_P2;PMS_P1;PMS_P2;Temp;Humidity;BMP_temperature;BMP_pressure;BME280_temperature;BME280_humidity;BME280_pressure;Samples;Min_cycle;Max_cycle;Signal;HPM_P1;HPM_P2
2021/05/11 00:00:20;;;;;;;2.30;1.43;;;16.40;99.90;;;;;;5133838;28;20157;-82
2021/05/11 00:02:46;;;;;;;1.20;1.10;;;16.40;99.90;;;;;;5076431;28;20195;-82
2021/05/11 00:05:12;;;;;;;1.20;1.10;;;16.40;99.90;;;;;;5076572;28;20425;-82
2021/05/11 00:07:42;;;;;;;1.10;1.00;;;16.30;99.90;;;;;;5072699;28;20242;-83
2021/05/11 00:10:09;;;;;;;1.43;1.33;;;16.40;99.90;;;;;;5041150;28;20383;-83
2021/05/11 00:12:35;;;;;;;1.23;1.13;;;16.30;99.90;;;;;;5058355;28;20538;-83
2021/05/11 00:15:01;;;;;;;2.37;1.30;;;16.30;99.90;;;;;;5057594;28;20735;-83
2021/05/11 00:17:28;;;;;;;2.00;1.23;;;16.20;99.90;;;;;;5041095;28;20439;-83
2021/05/11 00:19:54;;;;;;;1.40;1.30;;;16.20;99.90;;;;;;5058451;28;20167;-83
2021/05/11 00:22:19;;;;;;;2.03;1.20;;;16.30;99.90;;;;;;5057733;28;20402;-84
2021/05/11 00:24:45;;;;;;;1.43;1.33;;;16.30;99.90;;;;;;5057470;28;20251;-83
2021/05/11 00:27:11;;;;;;;1.23;1.13;;;16.20;99.90;;;;;;5057110;28;20192;-83
2021/05/11 00:29:37;;;;;;;2.83;1.50;;;16.30;99.90;;;;;;5057802;28;20608;-83
2021/05/11 00:32:03;;;;;;;1.40;1.30;;;16.20;99.90;;;;;;5057817;28;20660;-83
2021/05/11 00:34:29;;;;;;;3.33;1.70;;;16.20;99.90;;;;;;5104585;28;20395;-83
2021/05/11 00:36:55;;;;;;;1.20;1.10;;;16.20;99.90;;;;;;5119846;28;20434;-83
2021/05/11 00:39:20;;;;;;;1.43;1.23;;;16.20;99.90;;;;;;5120063;28;20255;-83
2021/05/11 00:41:46;;;;;;;1.50;1.40;;;16.10;99.90;;;;;;5120352;28;20171;-83
2021/05/11 00:44:27;;;;;;;1.93;1.27;;;16.20;99.90;;;;;;5101446;28;20166;-83
2021/05/11 00:46:58;;;;;;;2.43;1.40;;;16.10;99.90;;;;;;5120326;28;20170;-83
2021/05/11 00:49:25;;;;;;;2.27;1.57;;;16.10;99.90;;;;;;5119882;28;20388;-83
2021/05/11 00:51:51;;;;;;;1.47;1.30;;;16.00;99.90;;;;;;5120336;28;20402;-83
2021/05/11 00:54:17;;;;;;;1.30;1.20;;;16.00;99.90;;;;;;5124174;28;20396;-83
2021/05/11 00:56:45;;;;;;;1.50;1.40;;;16.00;99.90;;;;;;5123350;28;20565;-83
2021/05/11 00:59:16;;;;;;;1.20;1.10;;;16.00;99.90;;;;;;5124067;28;20391;-83
2021/05/11 01:01:42;;;;;;;1.37;1.27;;;16.00;99.90;;;;;;5089374;28;20747;-83
2021/05/11 01:04:08;;;;;;;1.40;1.30;;;16.00;99.90;;;;;;5123784;28;20387;-84
2021/05/11 01:06:34;;;;;;;1.77;1.67;;;16.00;99.90;;;;;;5105865;28;20150;-83
2021/05/11 01:09:00;;;;;;;1.50;1.40;;;16.00;99.90;;;;;;5100945;28;20218;-83
2021/05/11 01:11:27;;;;;;;2.07;1.40;;;16.00;99.90;;;;;;5118212;28;20178;-82
2021/05/11 01:13:52;;;;;;;1.27;1.17;;;16.00;99.90;;;;;;5112966;28;20404;-83
2021/05/11 01:16:18;;;;;;;1.20;1.10;;;16.00;99.90;;;;;;5101013;28;20408;-83
2021/05/11 01:18:47;;;;;;;1.30;1.20;;;16.00;99.90;;;;;;5101320;28;20213;-83
2021/05/11 01:24:00;;;;;;;2.20;1.20;;;15.90;99.90;;;;;;5100776;28;20408;-84
2021/05/11 01:26:33;;;;;;;5.90;1.50;;;15.80;99.90;;;;;;5100935;28;20491;-83
2021/05/11 01:29:16;;;;;;;1.60;1.50;;;15.80;99.90;;;;;;5099989;28;20897;-83
2021/05/11 01:32:11;;;;;;;2.93;1.30;;;15.90;99.90;;;;;;5100835;28;20408;-83
2021/05/11 01:46:28;;;;;;;1.87;1.20;;;15.80;99.90;;;;;;5125625;28;20468;-83
2021/05/11 01:48:09;;;;;;;1.70;1.30;;;15.80;99.90;;;;;;5117238;28;20459;-83
2021/05/11 01:50:42;;;;;;;1.60;1.30;;;15.80;99.90;;;;;;5132020;28;20444;-83
2021/05/11 01:56:03;;;;;;;1.30;1.10;;;15.70;99.90;;;;;;5135803;28;20470;-83
2021/05/11 01:58:51;;;;;;;1.50;1.40;;;15.80;99.90;;;;;;5138953;28;20445;-82
2021/05/11 02:22:43;;;;;;;6.40;1.30;;;15.70;99.90;;;;;;5135290;28;20406;-82
2021/05/11 02:25:09;;;;;;;1.30;1.20;;;15.60;99.90;;;;;;5119785;28;20447;-83
2021/05/11 02:27:37;;;;;;;1.13;1.03;;;15.70;99.90;;;;;;5136462;28;20455;-83
2021/05/11 02:30:08;;;;;;;1.53;1.10;;;15.70;99.90;;;;;;5109599;28;20487;-83
2021/05/11 02:32:35;;;;;;;1.60;1.50;;;15.70;99.90;;;;;;5113515;28;20391;-83
2021/05/11 02:35:01;;;;;;;1.10;1.00;;;15.70;99.90;;;;;;5103803;28;20397;-83
2021/05/11 02:37:27;;;;;;;1.23;1.13;;;15.70;99.90;;;;;;5121669;28;20491;-83
2021/05/11 02:39:53;;;;;;;2.03;1.33;;;15.70;99.90;;;;;;5121619;28;20427;-83
2021/05/11 02:42:19;;;;;;;1.40;1.30;;;15.70;99.90;;;;;;5122195;28;20793;-83
2021/05/11 02:44:46;;;;;;;2.30;2.10;;;15.70;99.90;;;;;;5103608;28;20221;-83
2021/05/11 02:47:12;;;;;;;1.33;1.23;;;15.70;99.90;;;;;;5121368;28;20193;-83
2021/05/11 02:49:43;;;;;;;1.40;1.10;;;15.70;99.90;;;;;;5122168;28;20442;-83
2021/05/11 02:52:08;;;;;;;1.93;1.30;;;15.60;99.90;;;;;;5121673;28;20396;-83
2021/05/11 02:54:34;;;;;;;1.30;1.20;;;15.60;99.90;;;;;;5122616;28;20872;-83
2021/05/11 02:57:00;;;;;;;3.00;1.27;;;15.60;99.90;;;;;;5122436;28;20154;-83
2021/05/11 02:59:26;;;;;;;1.77;1.50;;;15.60;99.90;;;;;;5121572;28;20165;-83
2021/05/11 03:01:52;;;;;;;1.27;1.17;;;15.50;99.90;;;;;;5121317;28;20173;-83
2021/05/11 03:04:17;;;;;;;1.37;1.27;;;15.50;99.90;;;;;;5121579;28;20158;-83
2021/05/11 03:06:43;;;;;;;1.30;1.20;;;15.40;99.90;;;;;;5121361;28;20197;-83
2021/05/11 03:09:09;;;;;;;1.20;1.10;;;15.40;99.90;;;;;;5121177;28;20198;-83
2021/05/11 03:11:35;;;;;;;1.30;1.20;;;15.40;99.90;;;;;;5122015;28;20154;-83
2021/05/11 03:14:01;;;;;;;1.30;1.20;;;15.40;99.90;;;;;;5121207;28;20425;-83
2021/05/11 03:16:27;;;;;;;3.23;1.10;;;15.30;99.90;;;;;;5120863;28;20161;-83
2021/05/11 03:18:53;;;;;;;1.47;1.30;;;15.30;99.90;;;;;;5120857;28;20166;-83
2021/05/11 03:21:19;;;;;;;1.40;1.30;;;15.30;99.90;;;;;;5120871;28;20450;-83
2021/05/11 03:23:45;;;;;;;1.63;1.53;;;15.30;99.90;;;;;;5121677;28;20396;-83
2021/05/11 03:26:11;;;;;;;1.30;1.20;;;15.30;99.90;;;;;;5102950;28;20423;-83
2021/05/11 03:28:36;;;;;;;2.23;1.37;;;15.30;99.90;;;;;;5102499;28;20209;-84
2021/05/11 03:31:02;;;;;;;1.23;1.13;;;15.20;99.90;;;;;;5121510;28;20201;-83
2021/05/11 03:33:28;;;;;;;2.40;1.30;;;15.20;99.90;;;;;;5120665;28;20161;-83
2021/05/11 03:35:54;;;;;;;1.40;1.30;;;15.20;99.90;;;;;;5085705;28;20510;-83
2021/05/11 03:38:19;;;;;;;1.63;1.50;;;15.30;99.90;;;;;;5120839;28;20169;-83
2021/05/11 03:40:45;;;;;;;3.23;1.50;;;15.30;99.90;;;;;;5103530;28;20610;-83
2021/05/11 03:43:16;;;;;;;1.60;1.37;;;15.30;99.90;;;;;;5103533;28;20252;-83
2021/05/11 03:45:47;;;;;;;7.70;1.60;;;15.30;99.90;;;;;;5104031;28;20447;-83
2021/05/11 03:48:13;;;;;;;1.60;1.50;;;15.30;99.90;;;;;;5121813;28;20447;-83
2021/05/11 03:50:39;;;;;;;1.70;1.60;;;15.30;99.90;;;;;;5122256;28;20805;-83
2021/05/11 03:53:04;;;;;;;1.47;1.37;;;15.30;99.90;;;;;;5122395;28;20483;-83
2021/05/11 03:55:30;;;;;;;2.80;1.90;;;15.30;99.90;;;;;;5121197;28;20154;-83
2021/05/11 03:57:56;;;;;;;1.70;1.60;;;15.20;99.90;;;;;;5103536;28;20268;-83
2021/05/11 04:00:22;;;;;;;1.77;1.43;;;15.30;99.90;;;;;;5122140;28;20252;-84
2021/05/11 04:02:48;;;;;;;2.90;1.50;;;15.30;99.90;;;;;;5134224;28;20227;-83
2021/05/11 04:05:15;;;;;;;1.37;1.20;;;15.30;99.90;;;;;;5137012;28;20383;-84
2021/05/11 04:07:42;;;;;;;1.43;1.30;;;15.20;99.90;;;;;;5133835;28;20968;-83
2021/05/11 04:10:18;;;;;;;2.90;1.87;;;15.20;99.90;;;;;;5125391;28;20388;-83
2021/05/11 04:18:01;;;;;;;1.40;1.30;;;15.30;99.90;;;;;;5120474;28;20428;-83
2021/05/11 04:20:27;;;;;;;2.87;1.70;;;15.10;99.90;;;;;;5119956;28;20748;-83
2021/05/11 04:22:53;;;;;;;1.47;1.20;;;15.20;99.90;;;;;;5120089;28;20164;-83
2021/05/11 04:25:20;;;;;;;1.30;1.20;;;15.30;99.90;;;;;;5102226;28;20170;-83
2021/05/11 04:27:46;;;;;;;1.50;1.40;;;15.30;99.90;;;;;;5121709;28;20259;-83
2021/05/11 04:30:12;;;;;;;1.80;1.70;;;15.30;99.90;;;;;;5061286;28;20493;-83
2021/05/11 04:32:38;;;;;;;1.40;1.30;;;15.30;99.90;;;;;;5062347;28;20202;-83
2021/05/11 04:35:04;;;;;;;1.80;1.70;;;15.30;99.90;;;;;;5072128;28;20457;-82
2021/05/11 04:37:30;;;;;;;2.90;2.13;;;15.30;99.90;;;;;;5077677;28;20160;-82
2021/05/11 04:39:56;;;;;;;1.40;1.30;;;15.30;99.90;;;;;;5060489;28;20426;-82
2021/05/11 04:42:22;;;;;;;2.27;1.80;;;15.30;99.90;;;;;;5043373;28;20165;-82
2021/05/11 04:44:49;;;;;;;4.10;1.77;;;15.30;99.90;;;;;;5052846;28;20455;-82
2021/05/11 04:47:19;;;;;;;1.73;1.60;;;15.30;99.90;;;;;;5023990;28;20514;-82
2021/05/11 04:49:45;;;;;;;2.13;1.93;;;15.30;99.90;;;;;;5040570;28;20534;-82
2021/05/11 04:52:11;;;;;;;1.60;1.50;;;15.30;99.90;;;;;;5040794;28;20463;-82
2021/05/11 04:54:37;;;;;;;2.07;1.87;;;15.30;99.90;;;;;;5040218;28;20463;-82
2021/05/11 04:57:03;;;;;;;1.60;1.50;;;15.30;99.90;;;;;;5039608;28;20291;-82
2021/05/11 04:59:29;;;;;;;1.73;1.63;;;15.30;99.90;;;;;;5040164;28;20165;-82
2021/05/11 05:01:56;;;;;;;1.53;1.43;;;15.40;99.90;;;;;;5091286;28;20913;-82
2021/05/11 05:04:22;;;;;;;1.60;1.50;;;15.30;99.90;;;;;;5102234;28;20235;-82
2021/05/11 05:06:48;;;;;;;1.43;1.33;;;15.40;99.90;;;;;;5102982;28;20411;-82
2021/05/11 05:09:14;;;;;;;1.80;1.70;;;15.40;99.90;;;;;;5101468;28;20452;-82
2021/05/11 05:11:40;;;;;;;2.03;1.50;;;15.40;99.90;;;;;;5101729;28;20159;-82
2021/05/11 05:14:08;;;;;;;2.37;1.40;;;15.40;99.90;;;;;;5101873;28;20158;-82
2021/05/11 05:16:35;;;;;;;2.20;1.47;;;15.30;99.90;;;;;;5084456;28;20389;-82
2021/05/11 05:19:03;;;;;;;2.13;1.57;;;15.30;99.90;;;;;;5104160;28;20397;-82
2021/05/11 05:21:29;;;;;;;1.80;1.50;;;15.30;99.90;;;;;;5084111;28;20546;-82
2021/05/11 05:24:09;;;;;;;1.80;1.70;;;15.30;99.90;;;;;;5085232;28;20416;-82
2021/05/11 05:26:38;;;;;;;2.20;1.60;;;15.30;99.90;;;;;;5101636;28;20159;-82
2021/05/11 05:29:04;;;;;;;1.90;1.80;;;15.30;99.90;;;;;;5083416;28;20798;-82
2021/05/11 05:31:30;;;;;;;1.80;1.70;;;15.20;99.90;;;;;;5102859;28;20397;-82
2021/05/11 05:33:56;;;;;;;1.83;1.73;;;15.10;99.90;;;;;;5102412;28;20170;-82
2021/05/11 05:36:22;;;;;;;1.83;1.60;;;15.30;99.90;;;;;;5099901;28;20389;-81
2021/05/11 05:38:49;;;;;;;3.00;1.70;;;15.40;99.90;;;;;;5116969;27;20189;-82
2021/05/11 05:41:23;;;;;;;1.77;1.67;;;15.60;99.90;;;;;;5110216;27;20972;-81
2021/05/11 05:43:50;;;;;;;1.70;1.60;;;15.70;99.90;;;;;;5085294;28;20439;-82
2021/05/11 05:46:17;;;;;;;3.40;3.10;;;15.70;99.90;;;;;;5141168;27;20458;-81
2021/05/11 05:48:45;;;;;;;1.83;1.63;;;15.90;99.90;;;;;;5128585;27;20451;-82
2021/05/11 05:51:11;;;;;;;1.87;1.60;;;16.00;99.90;;;;;;5122687;27;20452;-82
2021/05/11 05:53:39;;;;;;;2.73;1.90;;;15.90;99.90;;;;;;5122051;27;20912;-81
2021/05/11 05:56:06;;;;;;;1.47;1.37;;;16.10;99.90;;;;;;5114002;27;20435;-81
2021/05/11 05:58:32;;;;;;;2.00;1.73;;;16.20;99.90;;;;;;5103253;28;20412;-81
2021/05/11 06:01:02;;;;;;;3.03;1.93;;;16.20;99.90;;;;;;5101376;28;20396;-82
2021/05/11 06:06:12;;;;;;;2.67;1.83;;;16.30;99.90;;;;;;5135153;27;20506;-82
2021/05/11 06:08:39;;;;;;;4.03;1.67;;;16.40;99.90;;;;;;5129569;27;20494;-81
2021/05/11 06:11:30;;;;;;;2.00;1.90;;;16.50;99.90;;;;;;5130012;28;20415;-80
2021/05/11 06:19:12;;;;;;;2.13;1.80;;;16.60;99.90;;;;;;5116213;27;20432;-80
2021/05/11 06:21:38;;;;;;;2.23;2.03;;;16.60;99.90;;;;;;5119317;27;20493;-82
2021/05/11 06:24:04;;;;;;;2.03;1.87;;;16.60;99.90;;;;;;5107517;28;20439;-82
2021/05/11 06:26:30;;;;;;;3.67;1.50;;;16.70;99.90;;;;;;5117239;27;20178;-82
2021/05/11 06:28:58;;;;;;;2.03;1.90;;;16.70;99.90;;;;;;5128381;27;20978;-82
2021/05/11 06:31:24;;;;;;;1.70;1.60;;;16.70;99.90;;;;;;5139753;27;20764;-82
2021/05/11 06:33:50;;;;;;;1.90;1.80;;;16.70;99.90;;;;;;5134098;27;20423;-82
2021/05/11 06:36:16;;;;;;;3.30;1.40;;;16.70;99.90;;;;;;5095515;28;20268;-82
2021/05/11 06:38:44;;;;;;;2.53;1.93;;;16.70;99.90;;;;;;5100775;28;20419;-82
2021/05/11 06:41:11;;;;;;;2.60;2.00;;;16.80;99.90;;;;;;5118328;28;20404;-82
2021/05/11 06:43:39;;;;;;;1.73;1.63;;;16.80;99.90;;;;;;5106879;28;20289;-82
2021/05/11 06:46:23;;;;;;;1.70;1.60;;;16.80;99.90;;;;;;5094409;27;20454;-82
2021/05/11 06:49:16;;;;;;;2.83;2.37;;;16.80;99.90;;;;;;5097812;27;20463;-82
2021/05/11 06:54:14;;;;;;;2.33;2.13;;;16.80;99.90;;;;;;5116973;27;20446;-82
2021/05/11 06:56:44;;;;;;;2.90;2.03;;;16.90;99.90;;;;;;5117628;28;20411;-82
2021/05/11 06:59:12;;;;;;;1.63;1.53;;;17.00;99.90;;;;;;5118230;28;20420;-82
2021/05/11 07:01:38;;;;;;;2.50;1.70;;;17.00;99.90;;;;;;5118613;27;20532;-82
2021/05/11 07:04:04;;;;;;;2.30;1.50;;;17.00;99.90;;;;;;5122612;27;20419;-82
2021/05/11 07:06:29;;;;;;;3.20;1.60;;;17.00;99.90;;;;;;5129793;27;20176;-83
2021/05/11 07:09:02;;;;;;;1.67;1.57;;;17.00;99.90;;;;;;5131265;27;20455;-82
2021/05/11 07:13:08;;;;;;;3.33;1.97;;;17.10;99.90;;;;;;5141493;27;20640;-82
2021/05/11 07:14:13;;;;;;;2.53;2.07;;;17.20;99.90;;;;;;5134578;27;20576;-81
2021/05/11 07:16:39;;;;;;;1.80;1.70;;;17.20;99.90;;;;;;5132516;27;20468;-81
2021/05/11 07:19:05;;;;;;;3.77;1.97;;;17.10;99.90;;;;;;5137959;27;20294;-81
2021/05/11 07:21:30;;;;;;;6.67;1.93;;;17.20;99.90;;;;;;5133756;27;20185;-81
2021/05/11 07:23:57;;;;;;;5.37;2.00;;;17.20;99.90;;;;;;5137275;27;20176;-81
2021/05/11 07:26:27;;;;;;;2.33;1.83;;;17.30;99.90;;;;;;5131877;27;20169;-82
2021/05/11 07:29:06;;;;;;;2.03;1.83;;;17.10;99.90;;;;;;5090064;28;20534;-81
2021/05/11 07:31:33;;;;;;;2.13;1.93;;;17.00;99.90;;;;;;5137150;27;20498;-82
2021/05/11 07:34:00;;;;;;;2.73;1.80;;;17.20;99.90;;;;;;5141112;27;20403;-82
2021/05/11 07:36:26;;;;;;;1.90;1.80;;;17.00;99.90;;;;;;5131931;27;20423;-82
2021/05/11 07:38:52;;;;;;;3.10;2.10;;;17.10;99.90;;;;;;5134641;27;20482;-82
2021/05/11 07:41:19;;;;;;;1.90;1.70;;;17.20;99.90;;;;;;5134735;27;20475;-82
2021/05/11 07:43:50;;;;;;;3.10;1.83;;;17.30;99.90;;;;;;5116887;27;20521;-82
2021/05/11 07:46:43;;;;;;;2.50;1.87;;;17.20;99.90;;;;;;5103656;28;20530;-82
2021/05/11 07:49:20;;;;;;;4.40;2.23;;;17.20;99.90;;;;;;5126833;28;20458;-82
2021/05/11 08:03:09;;;;;;;1.73;1.63;;;17.00;99.90;;;;;;5129848;27;20431;-81
2021/05/11 08:05:34;;;;;;;4.27;2.03;;;17.30;99.90;;;;;;5126764;27;20423;-82
2021/05/11 08:10:54;;;;;;;2.80;2.00;;;17.50;99.90;;;;;;5135653;27;20437;-81
2021/05/11 08:16:04;;;;;;;1.87;1.67;;;17.10;99.90;;;;;;5132665;27;20427;-82
2021/05/11 08:18:42;;;;;;;4.50;2.00;;;17.20;99.90;;;;;;5141282;27;20418;-81
2021/05/11 08:29:09;;;;;;;2.63;1.60;;;17.70;99.90;;;;;;5142741;27;20453;-82
2021/05/11 08:31:35;;;;;;;2.30;2.10;;;17.80;99.90;;;;;;5142571;27;20878;-82
2021/05/11 08:34:01;;;;;;;2.13;2.00;;;17.70;99.90;;;;;;5125477;27;20440;-82
2021/05/11 08:36:27;;;;;;;2.70;1.70;;;17.90;99.90;;;;;;5144465;27;20422;-80
2021/05/11 08:38:57;;;;;;;1.83;1.43;;;18.00;99.90;;;;;;5148517;27;20191;-80
2021/05/11 08:41:23;;;;;;;2.33;2.13;;;18.00;99.90;;;;;;5118539;27;20426;-80
2021/05/11 08:43:49;;;;;;;4.47;2.33;;;18.20;99.90;;;;;;5167273;27;20417;-81
2021/05/11 08:46:15;;;;;;;1.93;1.70;;;18.30;99.90;;;;;;5135642;27;20464;-81
2021/05/11 08:48:41;;;;;;;1.80;1.70;;;18.40;99.90;;;;;;5159342;27;20212;-81
2021/05/11 08:51:12;;;;;;;1.90;1.77;;;18.40;99.90;;;;;;5124506;27;20395;-81
2021/05/11 09:16:30;;;;;;;4.00;2.10;;;18.60;99.90;;;;;;5154100;27;20425;-82
2021/05/11 09:24:24;;;;;;;3.30;2.60;;;18.90;99.90;;;;;;5135148;27;20414;-81
2021/05/11 09:26:54;;;;;;;2.50;2.30;;;18.80;99.90;;;;;;5138385;27;20456;-81
2021/05/11 09:29:43;;;;;;;2.63;2.40;;;19.00;99.90;;;;;;5144275;27;20445;-79
2021/05/11 09:33:24;;;;;;;3.00;2.00;;;19.00;99.90;;;;;;5161639;27;20402;-79
2021/05/11 09:45:06;;;;;;;4.40;2.70;;;19.10;99.90;;;;;;5164928;27;20489;-79
2021/05/11 09:54:46;;;;;;;2.50;2.23;;;19.50;99.90;;;;;;5040134;28;20462;-79
2021/05/11 09:57:19;;;;;;;5.80;2.40;;;19.40;99.90;;;;;;5087713;28;20434;-79
2021/05/11 10:40:40;;;;;;;2.67;2.47;;;19.30;99.90;;;;;;5079650;28;20410;-83
2021/05/11 10:48:41;;;;;;;2.80;2.60;;;19.50;99.90;;;;;;5033697;28;20491;-82
2021/05/11 10:51:18;;;;;;;6.20;2.47;;;19.60;99.90;;;;;;5073284;28;20457;-82
2021/05/11 10:53:56;;;;;;;8.63;2.63;;;19.60;99.90;;;;;;5056604;28;20488;-82
2021/05/11 10:56:45;;;;;;;4.20;3.00;;;19.60;99.90;;;;;;5059180;28;20421;-82
2021/05/11 10:59:38;;;;;;;2.63;2.43;;;19.60;99.90;;;;;;5050563;28;20413;-82
2021/05/11 11:02:38;;;;;;;3.43;2.60;;;19.50;99.90;;;;;;5077171;28;20882;-81
2021/05/11 11:04:53;;;;;;;2.40;1.80;;;19.60;99.90;;;;;;5077628;28;20643;-83
2021/05/11 11:07:31;;;;;;;2.73;2.53;;;19.60;99.90;;;;;;5049055;28;20476;-81
2021/05/11 11:10:00;;;;;;;4.70;2.70;;;19.50;99.90;;;;;;5084766;28;20169;-82
2021/05/11 11:12:35;;;;;;;3.90;2.77;;;19.50;99.90;;;;;;5106072;28;20496;-82
2021/05/11 11:15:04;;;;;;;3.43;2.90;;;19.50;99.90;;;;;;5096090;28;20772;-82
2021/05/11 11:17:44;;;;;;;3.00;2.70;;;19.60;99.90;;;;;;5094683;28;20920;-84
2021/05/11 11:20:13;;;;;;;4.17;3.80;;;19.40;99.90;;;;;;5061453;28;20429;-82
2021/05/11 11:25:21;;;;;;;3.03;2.80;;;19.50;99.90;;;;;;5103462;28;20392;-81
2021/05/11 11:27:49;;;;;;;3.30;2.57;;;19.60;99.90;;;;;;5075324;28;20460;-81
2021/05/11 11:30:17;;;;;;;5.53;2.87;;;19.70;99.90;;;;;;5044024;28;20995;-82
2021/05/11 11:32:43;;;;;;;2.73;2.50;;;19.70;99.90;;;;;;5078313;28;20417;-81
2021/05/11 11:35:11;;;;;;;4.20;2.97;;;19.70;99.90;;;;;;5077333;28;20488;-80
2021/05/11 11:37:38;;;;;;;2.53;2.37;;;19.80;99.90;;;;;;5080428;28;20209;-80
2021/05/11 11:40:08;;;;;;;3.40;2.73;;;19.90;99.90;;;;;;5136473;27;20772;-80
2021/05/11 11:42:41;;;;;;;3.83;2.47;;;19.70;99.90;;;;;;5109177;28;20459;-82
2021/05/11 11:45:26;;;;;;;2.90;2.67;;;19.90;99.90;;;;;;5101217;28;20443;-82
2021/05/11 11:48:04;;;;;;;4.80;2.90;;;19.90;99.90;;;;;;5117750;28;20444;-81
2021/05/11 11:50:36;;;;;;;2.60;2.40;;;20.10;99.90;;;;;;5113997;28;20427;-82
2021/05/11 11:53:12;;;;;;;2.50;2.30;;;20.20;99.90;;;;;;5081862;28;20417;-82
2021/05/11 11:55:55;;;;;;;2.63;2.43;;;20.20;99.90;;;;;;5079307;28;20393;-82
2021/05/11 11:58:24;;;;;;;2.87;2.43;;;20.20;99.90;;;;;;5116261;28;20450;-81
2021/05/11 12:00:50;;;;;;;3.00;2.80;;;20.20;99.90;;;;;;5129714;28;20612;-81
2021/05/11 12:03:22;;;;;;;2.53;2.33;;;20.20;99.90;;;;;;5136816;28;20421;-81
2021/05/11 12:05:52;;;;;;;7.07;2.47;;;20.10;99.90;;;;;;5107761;28;20407;-82
2021/05/11 12:08:21;;;;;;;4.27;2.13;;;20.10;99.90;;;;;;5088279;28;20884;-82
2021/05/11 12:11:06;;;;;;;2.83;2.47;;;20.10;99.90;;;;;;5118819;28;20400;-82
2021/05/11 12:13:36;;;;;;;2.57;2.37;;;20.00;99.90;;;;;;5099585;28;20415;-82
2021/05/11 12:16:16;;;;;;;3.07;2.40;;;20.00;99.90;;;;;;5121721;28;20396;-82
2021/05/11 12:19:06;;;;;;;3.50;2.67;;;20.00;99.90;;;;;;5132191;28;20412;-82
2021/05/11 12:21:47;;;;;;;4.40;2.73;;;20.00;99.90;;;;;;5102610;28;20422;-83
2021/05/11 12:24:13;;;;;;;3.67;3.33;;;20.00;99.90;;;;;;5111371;28;20435;-83
2021/05/11 12:26:44;;;;;;;2.90;2.70;;;20.00;99.90;;;;;;5121043;28;20401;-80
2021/05/11 12:29:15;;;;;;;3.23;2.97;;;20.00;99.90;;;;;;5060197;28;20210;-81
2021/05/11 12:31:45;;;;;;;2.70;2.50;;;20.00;99.90;;;;;;5079679;28;20446;-81
2021/05/11 12:34:15;;;;;;;5.33;3.10;;;20.00;99.90;;;;;;5112411;28;20837;-81
2021/05/11 12:36:49;;;;;;;7.80;3.00;;;20.00;99.90;;;;;;5125899;28;20440;-81
2021/05/11 12:42:24;;;;;;;6.03;3.27;;;20.10;99.90;;;;;;5107006;28;20407;-81
2021/05/11 12:45:06;;;;;;;3.30;2.83;;;20.00;99.90;;;;;;5111829;28;20463;-81
2021/05/11 12:47:42;;;;;;;3.03;2.73;;;20.00;99.90;;;;;;5111424;28;20450;-79
2021/05/11 12:50:26;;;;;;;2.93;2.73;;;20.00;99.90;;;;;;5121173;28;20456;-80
2021/05/11 12:52:53;;;;;;;2.87;2.67;;;20.00;99.90;;;;;;5113898;28;20417;-82
2021/05/11 12:55:55;;;;;;;3.20;2.63;;;19.90;99.90;;;;;;5106205;28;20405;-82
2021/05/11 13:01:54;;;;;;;4.93;3.80;;;19.70;99.90;;;;;;5118825;28;20418;-82
2021/05/11 13:04:51;;;;;;;4.40;2.80;;;19.70;99.90;;;;;;5122631;28;20420;-82
2021/05/11 13:21:03;;;;;;;6.83;4.77;;;19.40;99.90;;;;;;5108469;28;20399;-83
2021/05/11 13:26:12;;;;;;;5.27;3.37;;;19.40;99.90;;;;;;5121474;28;20388;-81
2021/05/11 13:28:49;;;;;;;3.37;3.07;;;19.30;99.90;;;;;;5120556;28;20536;-84
2021/05/11 13:31:28;;;;;;;5.90;3.67;;;19.40;99.90;;;;;;5121417;28;20408;-83
2021/05/11 13:34:09;;;;;;;9.27;3.50;;;19.40;99.90;;;;;;5121787;28;20388;-83
2021/05/11 13:36:38;;;;;;;4.03;3.13;;;19.50;99.90;;;;;;5122205;28;20387;-83
2021/05/11 13:39:05;;;;;;;7.10;3.93;;;19.50;99.90;;;;;;5121561;28;20403;-81
2021/05/11 13:41:34;;;;;;;3.20;3.00;;;19.50;99.90;;;;;;5122850;28;20400;-84
2021/05/11 13:44:00;;;;;;;7.00;3.57;;;19.50;99.90;;;;;;5102464;28;20413;-82
2021/05/11 13:46:27;;;;;;;6.00;3.80;;;19.40;99.90;;;;;;5100614;28;20527;-84
2021/05/11 13:48:52;;;;;;;4.17;3.83;;;19.50;99.90;;;;;;5092318;28;20456;-82
2021/05/11 13:51:19;;;;;;;4.60;4.10;;;19.50;99.90;;;;;;5126289;27;20775;-83
2021/05/11 13:53:50;;;;;;;5.07;4.67;;;19.50;99.90;;;;;;5122276;27;20182;-83
2021/05/11 13:56:28;;;;;;;5.30;4.40;;;19.50;99.90;;;;;;5121148;28;20392;-83
2021/05/11 14:01:58;;;;;;;8.07;4.70;;;19.50;99.90;;;;;;5132629;27;20441;-83
2021/05/11 14:04:27;;;;;;;4.63;4.23;;;19.50;99.90;;;;;;5104832;28;20403;-83
2021/05/11 14:06:53;;;;;;;9.57;4.30;;;19.50;99.90;;;;;;5092462;28;20400;-83
2021/05/11 14:09:19;;;;;;;5.20;4.73;;;19.50;99.90;;;;;;5100595;28;20491;-83
2021/05/11 14:11:45;;;;;;;5.60;4.73;;;19.40;99.90;;;;;;5092684;28;20400;-83
2021/05/11 14:14:12;;;;;;;5.10;4.50;;;19.30;99.90;;;;;;5113922;28;20541;-83
2021/05/11 14:16:38;;;;;;;5.63;5.07;;;19.20;99.90;;;;;;5107854;28;20416;-83
2021/05/11 14:19:05;;;;;;;5.00;4.50;;;19.20;99.90;;;;;;5115906;28;20416;-83
2021/05/11 14:21:31;;;;;;;4.50;4.20;;;19.10;99.90;;;;;;5120956;28;20845;-83
2021/05/11 14:23:58;;;;;;;6.03;5.00;;;19.00;99.90;;;;;;5122466;28;20396;-83
2021/05/11 14:26:26;;;;;;;5.93;3.90;;;19.00;99.90;;;;;;5103118;28;20408;-83
2021/05/11 14:28:52;;;;;;;5.53;5.03;;;19.00;99.90;;;;;;5119019;28;20455;-83
2021/05/11 14:31:38;;;;;;;6.10;4.63;;;19.10;99.90;;;;;;5134461;27;20406;-83
2021/05/11 14:34:05;;;;;;;5.97;4.87;;;19.10;99.90;;;;;;5083201;28;20471;-83
2021/05/11 14:36:32;;;;;;;7.40;5.07;;;19.20;99.90;;;;;;5097957;28;20503;-83
2021/05/11 14:38:57;;;;;;;5.67;5.07;;;18.70;99.90;;;;;;5098091;28;20435;-83
2021/05/11 14:41:26;;;;;;;5.30;4.80;;;18.70;99.90;;;;;;5081963;28;20421;-83
2021/05/11 14:43:55;;;;;;;5.33;4.33;;;18.70;99.90;;;;;;5075789;28;20321;-83
2021/05/11 14:46:24;;;;;;;5.37;4.50;;;18.60;99.90;;;;;;5091356;28;20408;-83
2021/05/11 14:48:50;;;;;;;6.73;5.00;;;18.60;99.90;;;;;;5101828;28;20839;-83
2021/05/11 14:51:16;;;;;;;9.70;4.83;;;18.70;99.90;;;;;;5097482;28;20416;-83
2021/05/11 14:53:46;;;;;;;5.33;4.83;;;18.70;99.90;;;;;;5058147;28;20471;-85
2021/05/11 14:56:12;;;;;;;5.53;5.07;;;18.80;99.90;;;;;;5057697;28;20428;-82
2021/05/11 14:58:39;;;;;;;4.97;4.50;;;18.80;99.90;;;;;;5056480;28;20415;-82
2021/05/11 15:01:05;;;;;;;4.20;3.80;;;18.90;99.90;;;;;;5040438;28;20422;-82
2021/05/11 15:03:32;;;;;;;6.53;4.40;;;18.80;99.90;;;;;;5012707;28;20527;-83
2021/05/11 15:05:58;;;;;;;4.37;4.07;;;18.80;99.90;;;;;;5044669;28;20397;-82
2021/05/11 15:08:24;;;;;;;5.80;4.13;;;18.70;99.90;;;;;;5044467;28;20461;-83
2021/05/11 15:10:50;;;;;;;4.47;4.17;;;18.70;99.90;;;;;;5085754;28;20442;-83
2021/05/11 15:13:19;;;;;;;4.60;4.27;;;18.70;99.90;;;;;;5081628;28;20198;-84
2021/05/11 15:15:50;;;;;;;5.77;5.27;;;18.60;99.90;;;;;;5071897;28;20406;-81
2021/05/11 15:18:17;;;;;;;5.20;4.80;;;18.60;99.90;;;;;;5065292;28;20404;-81
2021/05/11 15:20:44;;;;;;;5.90;5.30;;;18.60;99.90;;;;;;5074998;28;20449;-82
2021/05/11 15:23:10;;;;;;;5.37;4.97;;;18.50;99.90;;;;;;5060446;28;20401;-81
2021/05/11 15:25:37;;;;;;;5.87;5.33;;;18.50;99.90;;;;;;5114314;28;20404;-82
2021/05/11 15:28:04;;;;;;;5.37;4.87;;;18.50;99.90;;;;;;5105256;27;20442;-84
2021/05/11 15:30:37;;;;;;;13.33;7.53;;;18.40;99.90;;;;;;5122744;27;20409;-82
2021/05/11 15:33:04;;;;;;;5.67;5.07;;;18.40;99.90;;;;;;5097680;28;20432;-83
2021/05/11 15:35:33;;;;;;;7.27;6.57;;;18.30;99.90;;;;;;5097547;28;20852;-82
2021/05/11 15:38:02;;;;;;;7.07;6.47;;;18.40;99.90;;;;;;5078867;28;20409;-82
2021/05/11 15:40:31;;;;;;;8.43;7.63;;;18.30;99.90;;;;;;5085061;28;20424;-81
2021/05/11 15:42:57;;;;;;;6.63;6.03;;;18.30;99.90;;;;;;5103509;28;20424;-83
2021/05/11 15:45:48;;;;;;;7.27;6.63;;;18.30;99.90;;;;;;5056727;28;20460;-84
2021/05/11 15:48:17;;;;;;;7.13;5.93;;;18.20;99.90;;;;;;5027917;28;20475;-83
2021/05/11 15:50:45;;;;;;;7.43;6.73;;;18.20;99.90;;;;;;5036440;28;20422;-82
2021/05/11 15:53:15;;;;;;;7.43;6.73;;;18.20;99.90;;;;;;5055369;28;20446;-82
2021/05/11 15:55:43;;;;;;;7.20;6.60;;;18.10;99.90;;;;;;5050558;28;20426;-82
2021/05/11 15:58:11;;;;;;;8.87;7.97;;;18.10;99.90;;;;;;5049861;28;20431;-82
2021/05/11 16:00:39;;;;;;;8.53;7.73;;;18.10;99.90;;;;;;5052736;28;20418;-83
2021/05/11 16:03:06;;;;;;;9.80;8.90;;;18.00;99.90;;;;;;5062975;28;20422;-83
2021/05/11 16:05:35;;;;;;;11.00;8.20;;;18.00;99.90;;;;;;5065346;28;20423;-83
2021/05/11 16:08:02;;;;;;;9.20;8.30;;;18.00;99.90;;;;;;5096011;28;20581;-83
2021/05/11 16:10:29;;;;;;;8.30;7.60;;;18.10;99.90;;;;;;5096818;28;20461;-83
2021/05/11 16:12:58;;;;;;;10.97;8.47;;;18.00;99.90;;;;;;5081094;28;20444;-83
2021/05/11 16:15:25;;;;;;;7.07;6.37;;;18.00;99.90;;;;;;5081317;28;20416;-82